createdAt,value
2018-06-11T00:01:22.506Z,100184.84
2018-06-11T00:03:51.001Z,100191.51
2018-06-11T00:06:19.671Z,100189.06
2018-06-11T00:08:48.238Z,100182.19
2018-06-11T00:11:17.366Z,100188.50
2018-06-11T00:13:45.983Z,100182.53
2018-06-11T00:16:15.995Z,100188.59
2018-06-11T00:18:44.502Z,100185.55
2018-06-11T00:21:13.118Z,100178.53
2018-06-11T00:23:41.748Z,100181.07
2018-06-11T00:26:11.151Z,100174.06
2018-06-11T00:28:39.836Z,100172.09
2018-06-11T00:31:08.482Z,100167.88
2018-06-11T00:33:37.034Z,100170.54
2018-06-11T00:36:05.583Z,100173.84
2018-06-11T00:38:34.114Z,100166.45
2018-06-11T00:41:02.750Z,100164.52
2018-06-11T00:43:31.332Z,100170.10
2018-06-11T00:45:59.942Z,100159.70
2018-06-11T00:48:28.713Z,100160.65
2018-06-11T00:50:57.494Z,100161.63
2018-06-11T00:53:26.061Z,100152.31
2018-06-11T00:56:07.867Z,100153.89
2018-06-11T00:58:36.471Z,100144.22
2018-06-11T01:01:05.454Z,100150.88
2018-06-11T01:03:34.133Z,100155.35
2018-06-11T01:06:02.815Z,100157.55
2018-06-11T01:08:31.395Z,100151.48
2018-06-11T01:11:00.039Z,100143.75
2018-06-11T01:13:28.665Z,100139.97
2018-06-11T01:15:58.066Z,100142.07
2018-06-11T01:18:26.854Z,100135.66
2018-06-11T01:20:55.948Z,100140.86
2018-06-11T01:23:24.532Z,99970.00
2018-06-11T01:25:53.039Z,100132.52
2018-06-11T01:28:21.555Z,100127.80
2018-06-11T01:30:50.149Z,100127.45
2018-06-11T01:33:19.422Z,100129.03
2018-06-11T01:35:48.060Z,100120.06
2018-06-11T01:38:16.550Z,100122.98
2018-06-11T01:40:45.175Z,100116.70
2018-06-11T01:43:13.805Z,100120.45
2018-06-11T01:45:42.393Z,100111.51
2018-06-11T01:48:10.987Z,100107.00
2018-06-11T01:50:39.586Z,100104.34
2018-06-11T01:53:08.144Z,100106.31
2018-06-11T01:55:36.829Z,100103.64
2018-06-11T01:58:05.412Z,100096.98
2018-06-11T02:00:34.002Z,100106.56
2018-06-11T02:03:02.558Z,100097.59
2018-06-11T02:05:31.322Z,100086.81
2018-06-11T02:07:59.945Z,100088.62
2018-06-11T02:10:28.633Z,100088.62
2018-06-11T02:12:57.286Z,100088.62
2018-06-11T02:15:26.820Z,100084.63
2018-06-11T02:17:55.505Z,100083.30
2018-06-11T02:20:24.040Z,100079.30
2018-06-11T02:22:52.586Z,100077.62
2018-06-11T02:25:21.256Z,100081.36
2018-06-11T02:27:49.893Z,100074.35
2018-06-11T02:30:19.243Z,100071.69
2018-06-11T02:32:47.923Z,100073.72
2018-06-11T02:35:16.485Z,100064.39
2018-06-11T02:37:45.012Z,100073.72
2018-06-11T02:40:13.626Z,100064.39
2018-06-11T02:42:42.361Z,100063.45
2018-06-11T02:45:11.043Z,100059.80
2018-06-11T02:47:39.691Z,100059.80
2018-06-11T02:50:08.229Z,100056.16
2018-06-11T02:52:36.943Z,100057.98
2018-06-11T02:55:05.798Z,100054.81
2018-06-11T02:57:34.474Z,100054.21
2018-06-11T03:00:04.192Z,100043.22
2018-06-11T03:02:32.864Z,100045.23
2018-06-11T03:05:01.970Z,100038.58
2018-06-11T03:07:30.567Z,100043.30
2018-06-11T03:10:13.806Z,100034.33
2018-06-11T03:12:43.069Z,100028.66
2018-06-11T03:15:12.307Z,100033.13
2018-06-11T03:17:41.054Z,100027.06
2018-06-11T03:20:09.666Z,100036.60
2018-06-11T03:22:38.258Z,100027.79
2018-06-11T03:25:07.171Z,100035.78
2018-06-11T03:27:35.793Z,100027.15
2018-06-11T03:30:04.931Z,100032.13
2018-06-11T03:32:33.575Z,100024.73
2018-06-11T03:35:02.198Z,100024.48
2018-06-11T03:37:30.944Z,100027.97
2018-06-11T03:39:59.514Z,100023.09
2018-06-11T03:42:28.558Z,100023.83
2018-06-11T03:44:57.352Z,100014.58
2018-06-11T03:47:26.046Z,100019.65
2018-06-11T03:49:55.530Z,100012.86
2018-06-11T03:52:24.086Z,100014.05
2018-06-11T03:54:52.852Z,100012.21
2018-06-11T03:57:21.397Z,100018.40
2018-06-11T03:59:50.033Z,100007.02
2018-06-11T04:02:19.438Z,100010.41
2018-06-11T04:04:48.099Z,100007.73
2018-06-11T04:07:16.805Z,99998.67
2018-06-11T04:09:45.402Z,99995.03
2018-06-11T04:12:14.011Z,100005.08
2018-06-11T04:14:42.529Z,99992.09
2018-06-11T04:17:11.243Z,99993.80
2018-06-11T04:19:39.772Z,99989.55
2018-06-11T04:22:08.302Z,99988.21
2018-06-11T04:24:36.988Z,99979.16
2018-06-11T04:27:05.590Z,99978.62
2018-06-11T04:29:34.256Z,99975.50
2018-06-11T04:32:02.754Z,99985.41
2018-06-11T04:34:31.422Z,99982.50
2018-06-11T04:37:00.108Z,99979.49
2018-06-11T04:39:28.696Z,99977.55
2018-06-11T04:41:57.294Z,99972.56
2018-06-11T04:44:25.922Z,99975.95
2018-06-11T04:46:54.489Z,99969.16
2018-06-11T04:49:23.020Z,99966.84
2018-06-11T04:51:51.614Z,99968.52
2018-06-11T04:54:20.189Z,99961.64
2018-06-11T04:56:48.786Z,99966.62
2018-06-11T04:59:17.374Z,99969.29
2018-06-11T05:01:45.939Z,99953.91
2018-06-11T05:04:14.592Z,99953.78
2018-06-11T05:06:43.204Z,99957.64
2018-06-11T05:09:11.827Z,99945.38
2018-06-11T05:11:40.475Z,99943.52
2018-06-11T05:14:09.054Z,99947.24
2018-06-11T05:16:37.685Z,99944.84
2018-06-11T05:19:06.194Z,99941.56
2018-06-11T05:21:34.715Z,99948.57
2018-06-11T05:24:03.387Z,99941.98
2018-06-11T05:26:31.990Z,99940.75
2018-06-11T05:29:00.655Z,99943.84
2018-06-11T05:31:29.231Z,99939.49
2018-06-11T05:33:57.737Z,99944.83
2018-06-11T05:36:26.405Z,99944.48
2018-06-11T05:38:54.986Z,99938.16
2018-06-11T05:41:23.621Z,99944.48
2018-06-11T05:43:52.254Z,99951.49
2018-06-11T05:46:20.754Z,99934.78
2018-06-11T05:48:49.383Z,99949.55
2018-06-11T05:51:17.964Z,99941.55
2018-06-11T05:53:46.585Z,99941.27
2018-06-11T05:56:15.169Z,99946.41
2018-06-11T05:58:43.803Z,99941.00
2018-06-11T06:01:12.343Z,99945.41
2018-06-11T06:03:41.019Z,99936.23
2018-06-11T06:06:09.603Z,99939.97
2018-06-11T06:08:38.309Z,99949.92
2018-06-11T06:11:06.886Z,99940.52
2018-06-11T06:13:35.430Z,99939.69
2018-06-11T06:16:04.139Z,99943.27
2018-06-11T06:18:32.719Z,99942.77
2018-06-11T06:21:01.304Z,99941.25
2018-06-11T06:23:30.093Z,99947.41
2018-06-11T06:25:58.657Z,99945.09
2018-06-11T06:28:27.258Z,99943.97
2018-06-11T06:30:55.840Z,99947.27
2018-06-11T06:33:24.451Z,99950.37
2018-06-11T06:35:53.126Z,99945.09
2018-06-11T06:38:23.229Z,99948.41
2018-06-11T06:40:51.841Z,99942.22
2018-06-11T06:43:20.498Z,99947.84
2018-06-11T06:45:49.098Z,99933.51
2018-06-11T06:48:17.711Z,99936.20
2018-06-11T06:50:46.452Z,99934.43
2018-06-11T06:53:15.618Z,99933.43
2018-06-11T06:55:44.332Z,99933.28
2018-06-11T06:58:12.913Z,99928.34
2018-06-11T07:00:42.075Z,99936.99
2018-06-11T07:03:10.611Z,99940.08
2018-06-11T07:05:39.278Z,99928.30
2018-06-11T07:08:07.972Z,99927.47
2018-06-11T07:10:36.655Z,99934.69
2018-06-11T07:13:05.423Z,99935.27
2018-06-11T07:15:34.122Z,99929.92
2018-06-11T07:18:02.735Z,99917.22
2018-06-11T07:20:31.399Z,99923.13
2018-06-11T07:22:59.969Z,99923.54
2018-06-11T07:25:28.552Z,99911.67
2018-06-11T07:27:57.294Z,99916.31
2018-06-11T07:30:25.878Z,99919.53
2018-06-11T07:32:54.453Z,99920.23
2018-06-11T07:35:23.754Z,99910.55
2018-06-11T07:37:52.403Z,99921.33
2018-06-11T07:40:21.081Z,99903.78
2018-06-11T07:42:49.675Z,99898.02
2018-06-11T07:45:18.338Z,99897.80
2018-06-11T07:47:47.808Z,99887.36
2018-06-11T07:50:17.255Z,99892.14
2018-06-11T07:52:45.838Z,99903.52
2018-06-11T07:55:14.390Z,99897.45
2018-06-11T07:57:43.075Z,99900.67
2018-06-11T08:00:11.630Z,99899.67
2018-06-11T08:02:40.306Z,99897.36
2018-06-11T08:05:09.992Z,99902.58
2018-06-11T08:07:38.583Z,99897.23
2018-06-11T08:10:07.245Z,99896.31
2018-06-11T08:12:35.762Z,99884.41
2018-06-11T08:15:04.514Z,99893.00
2018-06-11T08:17:33.175Z,99891.08
2018-06-11T08:20:01.827Z,99891.79
2018-06-11T08:22:30.421Z,99882.36
2018-06-11T08:24:59.152Z,99881.05
2018-06-11T08:27:27.795Z,99880.03
2018-06-11T08:29:56.367Z,99878.09
2018-06-11T08:32:24.935Z,99883.34
2018-06-11T08:34:53.447Z,99877.05
2018-06-11T08:37:22.069Z,99878.46
2018-06-11T08:39:50.670Z,99883.23
2018-06-11T08:42:19.288Z,99870.82
2018-06-11T08:44:47.859Z,99873.67
2018-06-11T08:47:16.503Z,99882.80
2018-06-11T08:49:45.130Z,99868.84
2018-06-11T08:52:14.319Z,99865.55
2018-06-11T08:54:42.965Z,99862.79
2018-06-11T08:57:11.650Z,99872.22
2018-06-11T08:59:40.290Z,99870.02
2018-06-11T09:02:08.921Z,99865.95
2018-06-11T09:04:37.562Z,99860.50
2018-06-11T09:07:06.323Z,99848.30
2018-06-11T09:09:35.077Z,99859.45
2018-06-11T09:12:03.698Z,99854.80
2018-06-11T09:14:32.451Z,99862.66
2018-06-11T09:17:01.033Z,99861.77
2018-06-11T09:19:29.717Z,99867.23
2018-06-11T09:21:58.404Z,99866.78
2018-06-11T09:24:27.087Z,99866.40
2018-06-11T09:26:55.658Z,99863.98
2018-06-11T09:29:24.263Z,99858.20
2018-06-11T09:31:52.837Z,99866.27
2018-06-11T09:34:21.436Z,99856.16
2018-06-11T09:36:50.054Z,99860.42
2018-06-11T09:39:18.692Z,99858.13
2018-06-11T09:41:47.372Z,99862.73
2018-06-11T09:44:16.912Z,99863.00
2018-06-11T09:46:45.504Z,99850.70
2018-06-11T09:49:14.250Z,99853.06
2018-06-11T09:51:42.803Z,99856.08
2018-06-11T09:54:11.327Z,99862.62
2018-06-11T09:56:39.998Z,99858.39
2018-06-11T09:59:08.680Z,99854.63
2018-06-11T10:01:38.188Z,99851.39
2018-06-11T10:04:06.801Z,99860.71
2018-06-11T10:06:35.413Z,99859.95
2018-06-11T10:09:04.470Z,99863.14
2018-06-11T10:11:33.232Z,99852.62
2018-06-11T10:14:02.841Z,99862.69
2018-06-11T10:16:31.525Z,99859.07
2018-06-11T10:19:00.282Z,99881.91
2018-06-11T10:21:28.807Z,99872.17
2018-06-11T10:23:57.382Z,99864.11
2018-06-11T10:26:26.038Z,99875.27
2018-06-11T10:28:54.696Z,99866.70
2018-06-11T10:31:23.242Z,99875.84
2018-06-11T10:33:51.866Z,99868.28
2018-06-11T10:36:20.481Z,99880.67
2018-06-11T10:38:48.992Z,99866.30
2018-06-11T10:41:18.218Z,99867.51
2018-06-11T10:43:46.836Z,99865.48
2018-06-11T10:46:15.354Z,99870.67
2018-06-11T10:48:43.862Z,99867.41
2018-06-11T10:51:12.406Z,99859.69
2018-06-11T10:53:40.985Z,99862.35
2018-06-11T10:56:09.567Z,99858.36
2018-06-11T10:58:38.793Z,99855.70
2018-06-11T11:01:07.656Z,99846.14
2018-06-11T11:03:39.153Z,99839.50
2018-06-11T11:06:08.644Z,99849.53
2018-06-11T11:08:37.300Z,99850.35
2018-06-11T11:11:06.041Z,99848.89
2018-06-11T11:13:34.664Z,99856.36
2018-06-11T11:16:04.272Z,99846.70
2018-06-11T11:18:32.778Z,99843.19
2018-06-11T11:21:01.540Z,99841.34
2018-06-11T11:23:30.231Z,99840.36
2018-06-11T11:25:59.526Z,99836.37
2018-06-11T11:28:28.106Z,99839.23
2018-06-11T11:30:56.793Z,99835.94
2018-06-11T11:33:25.430Z,99839.84
2018-06-11T11:35:53.926Z,99830.14
2018-06-11T11:38:22.541Z,99821.25
2018-06-11T11:40:51.650Z,99825.13
2018-06-11T11:43:21.039Z,99826.37
2018-06-11T11:45:49.623Z,99828.05
2018-06-11T11:48:18.219Z,99821.56
2018-06-11T11:50:46.890Z,99821.57
2018-06-11T11:53:16.394Z,99814.96
2018-06-11T11:55:45.080Z,99819.21
2018-06-11T11:58:13.663Z,99811.19
2018-06-11T12:00:42.256Z,99820.37
2018-06-11T12:03:10.850Z,99819.17
2018-06-11T12:05:39.513Z,99818.73
2018-06-11T12:08:08.078Z,99823.33
2018-06-11T12:10:36.783Z,99821.66
2018-06-11T12:13:05.349Z,99813.04
2018-06-11T12:15:34.152Z,99815.09
2018-06-11T12:18:02.838Z,99829.38
2018-06-11T12:20:31.409Z,99809.52
2018-06-11T12:23:00.100Z,99812.52
2018-06-11T12:25:29.331Z,99809.38
2018-06-11T12:27:57.911Z,99817.36
2018-06-11T12:30:26.470Z,99822.34
2018-06-11T12:32:55.153Z,99816.90
2018-06-11T12:35:23.791Z,99808.79
2018-06-11T12:37:53.598Z,99804.72
2018-06-11T12:40:22.339Z,99803.98
2018-06-11T12:42:50.853Z,99803.30
2018-06-11T12:45:19.511Z,99803.17
2018-06-11T12:47:48.502Z,99800.52
2018-06-11T12:50:18.330Z,99801.50
2018-06-11T12:52:47.056Z,99799.70
2018-06-11T12:55:15.677Z,99808.32
2018-06-11T12:57:44.362Z,99800.73
2018-06-11T13:00:12.890Z,99793.55
2018-06-11T13:02:41.486Z,99805.87
2018-06-11T13:05:10.015Z,99797.55
2018-06-11T13:07:38.821Z,99799.56
2018-06-11T13:10:07.484Z,99800.64
2018-06-11T13:12:36.270Z,99800.38
2018-06-11T13:15:05.469Z,99791.80
2018-06-11T13:17:34.150Z,99788.50
2018-06-11T13:20:02.770Z,99786.88
2018-06-11T13:22:31.368Z,99788.29
2018-06-11T13:24:59.938Z,99789.83
2018-06-11T13:27:29.095Z,99791.83
2018-06-11T13:29:57.782Z,99789.84
2018-06-11T13:32:26.442Z,99790.11
2018-06-11T13:34:54.986Z,99782.05
2018-06-11T13:37:24.395Z,99776.73
2018-06-11T13:39:52.960Z,99785.05
2018-06-11T13:42:21.564Z,99780.08
2018-06-11T13:44:50.306Z,99783.94
2018-06-11T13:47:18.906Z,99778.27
2018-06-11T13:49:47.570Z,99779.27
2018-06-11T13:52:16.256Z,99780.98
2018-06-11T13:54:44.862Z,99784.59
2018-06-11T13:57:13.421Z,99779.73
2018-06-11T13:59:41.960Z,99775.13
2018-06-11T14:02:10.588Z,99774.58
2018-06-11T14:04:40.405Z,99761.47
2018-06-11T14:07:09.743Z,99769.39
2018-06-11T14:09:38.298Z,99762.93
2018-06-11T14:12:06.967Z,99760.22
2018-06-11T14:14:35.562Z,99761.01
2018-06-11T14:17:04.382Z,99748.77
2018-06-11T14:19:33.229Z,99757.23
2018-06-11T14:22:02.063Z,99758.63
2018-06-11T14:24:30.701Z,99748.70
2018-06-11T14:26:59.322Z,99744.58
2018-06-11T14:29:27.868Z,99756.63
2018-06-11T14:31:56.405Z,99745.39
2018-06-11T14:34:24.931Z,99743.72
2018-06-11T14:36:53.538Z,99731.67
2018-06-11T14:39:22.164Z,99746.19
2018-06-11T14:41:50.783Z,99751.23
2018-06-11T14:44:19.465Z,99748.67
2018-06-11T14:46:48.080Z,99750.35
2018-06-11T14:49:16.938Z,99741.37
2018-06-11T14:51:45.427Z,99741.54
2018-06-11T14:54:14.157Z,99736.66
2018-06-11T14:56:42.719Z,99729.28
2018-06-11T14:59:11.375Z,99734.13
2018-06-11T15:01:39.895Z,99734.95
2018-06-11T15:04:08.454Z,99731.60
2018-06-11T15:06:37.911Z,99734.61
2018-06-11T15:09:07.896Z,99727.95
2018-06-11T15:11:36.632Z,99733.06
2018-06-11T15:14:05.429Z,99733.57
2018-06-11T15:16:34.075Z,99731.34
2018-06-11T15:19:03.305Z,99727.84
2018-06-11T15:21:31.898Z,99730.34
2018-06-11T15:24:00.501Z,99727.97
2018-06-11T15:26:29.237Z,99722.30
2018-06-11T15:28:57.851Z,99713.96
2018-06-11T15:31:27.250Z,99717.59
2018-06-11T15:33:56.794Z,99710.30
2018-06-11T15:36:25.439Z,99713.81
2018-06-11T15:38:54.125Z,99710.80
2018-06-11T15:41:22.812Z,99714.64
2018-06-11T15:43:51.427Z,99711.41
2018-06-11T15:46:20.022Z,99719.41
2018-06-11T15:48:48.770Z,99716.58
2018-06-11T15:51:17.334Z,99709.21
2018-06-11T15:53:46.516Z,99715.66
2018-06-11T15:56:15.632Z,99707.95
2018-06-11T15:58:44.224Z,99712.22
2018-06-11T16:01:12.857Z,99709.11
2018-06-11T16:03:41.487Z,99707.09
2018-06-11T16:06:10.338Z,99705.04
2018-06-11T16:08:38.945Z,99702.86
2018-06-11T16:11:08.018Z,99701.63
2018-06-11T16:13:36.569Z,99693.14
2018-06-11T16:16:05.437Z,99704.70
2018-06-11T16:18:35.381Z,99700.78
2018-06-11T16:21:04.669Z,99696.78
2018-06-11T16:23:33.219Z,99693.78
2018-06-11T16:26:01.895Z,99698.92
2018-06-11T16:28:30.643Z,99694.19
2018-06-11T16:31:00.049Z,99688.86
2018-06-11T16:33:28.722Z,99696.71
2018-06-11T16:35:58.905Z,99693.78
2018-06-11T16:38:27.590Z,99695.11
2018-06-11T16:40:56.195Z,99694.73
2018-06-11T16:43:24.805Z,99686.45
2018-06-11T16:45:53.440Z,99688.08
2018-06-11T16:48:22.328Z,99687.81
2018-06-11T16:50:51.117Z,99688.25
2018-06-11T16:53:19.802Z,99684.33
2018-06-11T16:55:48.389Z,99686.00
2018-06-11T16:58:17.008Z,99673.47
2018-06-11T17:00:45.654Z,99679.17
2018-06-11T17:03:14.282Z,99675.11
2018-06-11T17:05:43.636Z,99677.61
2018-06-11T17:08:12.323Z,99671.03
2018-06-11T17:10:40.915Z,99678.04
2018-06-11T17:13:09.545Z,99678.01
2018-06-11T17:15:38.178Z,99673.38
2018-06-11T17:18:06.807Z,99668.05
2018-06-11T17:20:35.383Z,99667.71
2018-06-11T17:23:04.639Z,99667.48
2018-06-11T17:25:33.709Z,99664.97
2018-06-11T17:28:02.274Z,99670.86
2018-06-11T17:30:30.899Z,99669.14
2018-06-11T17:32:59.527Z,99666.81
2018-06-11T17:35:28.168Z,99672.20
2018-06-11T17:37:56.818Z,99666.53
2018-06-11T17:40:25.426Z,99668.34
2018-06-11T17:42:53.963Z,99666.66
2018-06-11T17:45:22.602Z,99659.36
2018-06-11T17:47:51.149Z,99644.45
2018-06-11T17:50:21.121Z,99660.38
2018-06-11T17:52:49.993Z,99659.95
2018-06-11T17:55:18.612Z,99671.59
2018-06-11T17:57:47.261Z,99655.88
2018-06-11T18:00:15.758Z,99650.03
2018-06-11T18:02:44.407Z,99657.73
2018-06-11T18:05:12.931Z,99658.33
2018-06-11T18:07:41.526Z,99661.88
2018-06-11T18:10:10.102Z,99663.84
2018-06-11T18:12:38.664Z,99664.98
2018-06-11T18:15:07.233Z,99673.95
2018-06-11T18:17:35.715Z,99670.77
2018-06-11T18:20:05.070Z,99664.42
2018-06-11T18:22:33.614Z,99670.72
2018-06-11T18:25:02.288Z,99661.86
2018-06-11T18:27:30.885Z,99662.09
2018-06-11T18:29:59.448Z,99667.89
2018-06-11T18:32:28.053Z,99681.52
2018-06-11T18:34:57.184Z,99680.44
2018-06-11T18:37:25.761Z,99677.38
2018-06-11T18:39:55.256Z,99676.27
2018-06-11T18:42:23.868Z,99673.59
2018-06-11T18:44:52.482Z,99673.59
2018-06-11T18:47:20.991Z,99677.59
2018-06-11T18:49:49.610Z,99671.88
2018-06-11T18:52:18.178Z,99680.22
2018-06-11T18:54:46.806Z,99686.84
2018-06-11T18:57:15.503Z,99690.32
2018-06-11T18:59:44.798Z,99690.75
2018-06-11T19:02:13.585Z,99691.75
2018-06-11T19:04:42.806Z,99683.04
2018-06-11T19:07:11.468Z,99690.08
2018-06-11T19:09:40.114Z,99683.61
2018-06-11T19:12:08.791Z,99685.84
2018-06-11T19:14:38.445Z,99697.89
2018-06-11T19:17:08.255Z,99694.12
2018-06-11T19:19:36.945Z,99697.27
2018-06-11T19:22:05.780Z,99695.36
2018-06-11T19:24:35.446Z,99691.98
2018-06-11T19:27:04.123Z,99701.31
2018-06-11T19:29:32.808Z,99712.07
2018-06-11T19:32:01.447Z,99716.98
2018-06-11T19:34:30.102Z,99709.32
2018-06-11T19:36:58.800Z,99699.98
2018-06-11T19:39:27.561Z,99712.70
2018-06-11T19:41:56.197Z,99718.73
2018-06-11T19:44:24.748Z,99715.03
2018-06-11T19:46:54.152Z,99724.28
2018-06-11T19:49:23.010Z,99731.95
2018-06-11T19:51:51.675Z,99729.70
2018-06-11T19:54:20.354Z,99741.80
2018-06-11T19:56:49.064Z,99740.09
2018-06-11T19:59:17.815Z,99745.58
2018-06-11T20:01:46.493Z,99747.19
2018-06-11T20:04:15.127Z,99749.66
2018-06-11T20:06:43.704Z,99753.66
2018-06-11T20:09:12.199Z,99760.95
2018-06-11T20:11:40.820Z,99754.48
2018-06-11T20:14:10.373Z,99758.19
2018-06-11T20:16:38.959Z,99757.17
2018-06-11T20:19:07.641Z,99767.27
2018-06-11T20:21:36.308Z,99768.53
2018-06-11T20:24:05.011Z,99765.02
2018-06-11T20:26:34.219Z,99774.15
2018-06-11T20:29:03.098Z,99776.09
2018-06-11T20:31:31.749Z,99777.43
2018-06-11T20:34:00.571Z,99779.75
2018-06-11T20:36:29.257Z,99783.38
2018-06-11T20:38:57.839Z,99784.03
2018-06-11T20:41:26.518Z,99782.13
2018-06-11T20:43:55.211Z,99779.39
2018-06-11T20:46:23.748Z,99785.48
2018-06-11T20:48:52.376Z,99787.43
2018-06-11T20:51:20.991Z,99787.43
2018-06-11T20:53:49.693Z,99783.50
2018-06-11T20:56:18.354Z,99789.31
2018-06-11T20:58:47.023Z,99790.72
2018-06-11T21:01:15.704Z,99791.78
2018-06-11T21:03:44.281Z,99791.60
2018-06-11T21:06:12.790Z,99797.75
2018-06-11T21:08:41.386Z,99799.69
2018-06-11T21:11:10.033Z,99798.62
2018-06-11T21:13:38.716Z,99802.89
2018-06-11T21:16:07.746Z,99796.25
2018-06-11T21:18:36.808Z,99805.09
2018-06-11T21:21:05.540Z,99806.72
2018-06-11T21:23:34.114Z,99810.89
2018-06-11T21:26:02.757Z,99814.43
2018-06-11T21:28:31.267Z,99811.58
2018-06-11T21:30:59.771Z,99814.08
2018-06-11T21:33:28.403Z,99815.93
2018-06-11T21:35:57.088Z,99820.06
2018-06-11T21:38:25.736Z,99821.57
2018-06-11T21:40:54.279Z,99819.43
2018-06-11T21:43:22.940Z,99825.00
2018-06-11T21:45:51.467Z,99821.91
2018-06-11T21:48:20.054Z,99824.36
2018-06-11T21:50:48.645Z,99828.01
2018-06-11T21:53:17.271Z,99832.51
2018-06-11T21:55:45.822Z,99827.95
2018-06-11T21:58:14.336Z,99828.55
2018-06-11T22:00:42.990Z,99824.22
2018-06-11T22:03:11.503Z,99823.23
2018-06-11T22:05:40.021Z,99830.86
2018-06-11T22:08:08.611Z,99829.31
2018-06-11T22:10:37.247Z,99826.15
2018-06-11T22:13:06.444Z,99824.22
2018-06-11T22:15:35.130Z,99818.17
2018-06-11T22:18:03.898Z,99833.87
2018-06-11T22:20:32.604Z,99826.37
2018-06-11T22:23:01.289Z,99827.41
2018-06-11T22:25:29.798Z,99832.98
2018-06-11T22:27:58.378Z,99827.91
2018-06-11T22:30:27.177Z,99831.11
2018-06-11T22:32:55.671Z,99834.66
2018-06-11T22:35:25.374Z,99834.98
2018-06-11T22:37:53.956Z,99831.66
2018-06-11T22:40:22.587Z,99825.12
2018-06-11T22:42:51.741Z,99822.19
2018-06-11T22:45:20.378Z,99824.31
2018-06-11T22:47:48.866Z,99832.83
2018-06-11T22:50:17.544Z,99832.64
2018-06-11T22:52:46.842Z,99830.56
2018-06-11T22:55:15.337Z,99824.11
2018-06-11T22:57:43.907Z,99818.78
2018-06-11T23:00:13.411Z,99829.89
2018-06-11T23:02:41.906Z,99829.75
2018-06-11T23:05:10.596Z,99833.09
2018-06-11T23:07:39.264Z,99837.34
2018-06-11T23:10:07.790Z,99841.41
2018-06-11T23:12:36.427Z,99839.94
2018-06-11T23:15:05.019Z,99839.16
2018-06-11T23:17:33.703Z,99831.16
2018-06-11T23:20:02.268Z,99830.89
2018-06-11T23:22:30.754Z,99837.92
2018-06-11T23:24:59.341Z,99834.27
2018-06-11T23:27:28.026Z,99827.00
2018-06-11T23:29:56.631Z,99825.15
2018-06-11T23:32:25.347Z,99830.34
2018-06-11T23:34:54.492Z,99825.73
2018-06-11T23:37:23.075Z,99824.73
2018-06-11T23:39:51.657Z,99820.27
2018-06-11T23:42:20.178Z,99813.13
2018-06-11T23:44:48.822Z,99820.84
2018-06-11T23:47:17.314Z,99815.79
2018-06-11T23:49:45.988Z,99818.86
2018-06-11T23:52:14.751Z,99818.86
2018-06-11T23:54:43.461Z,99806.52
2018-06-11T23:57:12.082Z,99803.24
2018-06-11T23:59:40.730Z,99806.52
